Time;durP1;ratioP1;P1;durP2;ratioP2;P2;SDS_P1;SDS_P2;PMS_P1;PMS_P2;Temp;Humidity;BMP_temperature;BMP_pressure;BME280_temperature;BME280_humidity;BME280_pressure;Samples;Min_cycle;Max_cycle;Signal;HPM_P1;HPM_P2
2020/12/06 00:00:17;;;;;;;20.33;16.27;;;5.90;99.90;;;;;;5069105;28;20184;-62
2020/12/06 00:02:42;;;;;;;20.30;15.57;;;5.90;99.90;;;;;;5068951;28;20180;-62
2020/12/06 00:05:09;;;;;;;18.93;15.57;;;5.80;99.90;;;;;;5068237;28;20252;-62
2020/12/06 00:07:36;;;;;;;20.42;15.98;;;6.00;99.90;;;;;;5076110;28;20198;-61
2020/12/06 00:10:07;;;;;;;19.48;16.38;;;5.80;99.90;;;;;;5068760;28;20222;-62
2020/12/06 00:12:37;;;;;;;20.25;16.42;;;5.70;99.90;;;;;;5068946;28;20244;-62
2020/12/06 00:15:08;;;;;;;19.70;16.35;;;5.50;99.90;;;;;;5076467;28;20202;-62
2020/12/06 00:17:34;;;;;;;19.85;17.40;;;5.70;99.90;;;;;;5072681;28;20230;-62
2020/12/06 00:20:00;;;;;;;20.33;16.73;;;6.10;99.90;;;;;;5066011;28;20186;-62
2020/12/06 00:22:26;;;;;;;20.13;16.90;;;6.00;99.90;;;;;;5068592;28;20211;-61
2020/12/06 00:24:52;;;;;;;17.95;16.02;;;5.80;99.90;;;;;;5068457;28;20309;-62
2020/12/06 00:27:17;;;;;;;19.20;16.87;;;5.80;99.90;;;;;;5063730;28;20277;-62
2020/12/06 00:29:43;;;;;;;20.10;16.83;;;5.80;99.90;;;;;;5068488;28;20185;-62
2020/12/06 00:32:08;;;;;;;20.83;17.70;;;5.60;99.90;;;;;;5068306;28;20232;-62
2020/12/06 00:34:34;;;;;;;19.37;15.20;;;5.70;99.90;;;;;;5074307;28;20644;-62
2020/12/06 00:37:00;;;;;;;20.47;14.83;;;5.80;99.90;;;;;;5074364;28;20272;-62
2020/12/06 00:39:25;;;;;;;20.90;16.63;;;5.60;99.90;;;;;;5068615;28;20274;-62
2020/12/06 00:41:51;;;;;;;22.97;17.30;;;5.60;99.90;;;;;;5068230;28;20190;-62
2020/12/06 00:44:16;;;;;;;20.70;17.10;;;5.80;99.90;;;;;;5067728;28;20270;-62
2020/12/06 00:46:43;;;;;;;21.17;16.50;;;5.90;99.90;;;;;;5067580;28;20202;-62
2020/12/06 00:49:09;;;;;;;20.02;15.90;;;6.00;99.90;;;;;;5068129;28;20278;-61
2020/12/06 00:51:34;;;;;;;20.93;16.20;;;5.90;99.90;;;;;;5072457;28;20295;-62
2020/12/06 00:54:00;;;;;;;21.60;16.40;;;5.80;99.90;;;;;;5068536;28;20204;-61
2020/12/06 00:56:26;;;;;;;20.93;16.50;;;5.90;99.90;;;;;;5067905;28;20181;-62
2020/12/06 00:58:51;;;;;;;19.27;16.00;;;5.70;99.90;;;;;;5067668;28;20177;-62
2020/12/06 01:01:18;;;;;;;21.30;17.20;;;5.80;99.90;;;;;;5068239;28;20273;-62
2020/12/06 01:03:44;;;;;;;19.50;15.50;;;5.80;99.90;;;;;;5067383;28;20188;-62
2020/12/06 01:06:17;;;;;;;21.98;16.38;;;6.00;99.90;;;;;;5067793;28;20684;-62
2020/12/06 01:08:46;;;;;;;21.45;17.90;;;5.90;99.90;;;;;;5067725;28;20183;-62
2020/12/06 01:11:13;;;;;;;18.63;16.08;;;5.80;99.90;;;;;;5067579;28;20207;-62
2020/12/06 01:13:40;;;;;;;19.52;15.40;;;5.80;99.90;;;;;;5067693;28;20176;-62
2020/12/06 01:16:06;;;;;;;22.25;17.08;;;6.00;99.90;;;;;;5068772;28;20199;-62
2020/12/06 01:18:35;;;;;;;19.67;16.20;;;5.80;99.90;;;;;;5076867;28;20190;-63
2020/12/06 01:21:01;;;;;;;19.50;16.65;;;6.00;99.90;;;;;;5067733;28;20196;-63
2020/12/06 01:23:27;;;;;;;19.60;17.00;;;5.80;99.90;;;;;;5066952;28;20196;-62
2020/12/06 01:25:52;;;;;;;24.20;17.37;;;5.60;99.90;;;;;;5079479;28;20928;-62
2020/12/06 01:28:18;;;;;;;19.37;15.90;;;5.70;99.90;;;;;;5067039;28;20212;-62
2020/12/06 01:30:43;;;;;;;22.13;16.30;;;5.80;99.90;;;;;;5067812;28;20196;-62
2020/12/06 01:33:09;;;;;;;19.50;16.60;;;5.50;99.90;;;;;;5067878;28;20187;-62
2020/12/06 01:35:35;;;;;;;23.07;17.40;;;5.60;99.90;;;;;;5068572;28;20204;-62
2020/12/06 01:38:00;;;;;;;20.70;16.60;;;5.90;99.90;;;;;;5067208;28;20212;-62
2020/12/06 01:40:27;;;;;;;21.37;16.77;;;5.70;99.90;;;;;;5067374;28;20575;-62
2020/12/06 01:42:53;;;;;;;20.42;16.30;;;5.60;99.90;;;;;;5067487;28;20181;-62
2020/12/06 01:45:19;;;;;;;23.37;16.60;;;5.60;99.90;;;;;;5078110;28;20208;-62
2020/12/06 01:47:44;;;;;;;18.67;15.83;;;5.60;99.90;;;;;;5068160;28;20671;-62
2020/12/06 01:50:12;;;;;;;18.63;15.80;;;5.60;99.90;;;;;;5067727;28;20460;-62
2020/12/06 01:52:39;;;;;;;20.23;15.63;;;5.50;99.90;;;;;;5067580;28;20586;-62
2020/12/06 01:55:07;;;;;;;21.20;16.35;;;5.40;99.90;;;;;;5067641;28;20231;-62
2020/12/06 01:57:32;;;;;;;21.20;14.93;;;5.70;99.90;;;;;;5067436;28;20212;-62
2020/12/06 01:59:58;;;;;;;19.00;15.40;;;5.60;99.90;;;;;;5075904;28;20219;-62
2020/12/06 02:02:24;;;;;;;19.47;15.00;;;6.00;99.90;;;;;;5070615;28;20274;-62
2020/12/06 02:04:52;;;;;;;19.17;15.20;;;5.80;99.90;;;;;;5070946;28;20264;-62
2020/12/06 02:07:17;;;;;;;18.48;15.30;;;5.60;99.90;;;;;;5070623;28;20191;-62
2020/12/06 02:09:44;;;;;;;18.50;15.63;;;5.80;99.90;;;;;;5071412;28;20630;-62
2020/12/06 02:12:09;;;;;;;19.15;15.50;;;5.90;99.90;;;;;;5071526;28;20176;-62
2020/12/06 02:14:35;;;;;;;21.43;15.90;;;5.80;99.90;;;;;;5072039;28;20203;-62
2020/12/06 02:17:02;;;;;;;19.85;16.00;;;5.70;99.90;;;;;;5079988;28;20827;-62
2020/12/06 02:19:28;;;;;;;25.02;16.75;;;5.60;99.90;;;;;;5070809;28;20196;-62
2020/12/06 02:21:53;;;;;;;21.10;17.00;;;5.40;99.90;;;;;;5071039;28;20187;-63
2020/12/06 02:24:19;;;;;;;19.73;14.37;;;5.40;99.90;;;;;;5070510;28;20252;-62
2020/12/06 02:26:47;;;;;;;19.60;15.13;;;5.70;99.90;;;;;;5070639;28;20215;-61
2020/12/06 02:29:13;;;;;;;20.00;15.52;;;5.60;99.90;;;;;;5075727;28;20436;-62
2020/12/06 02:31:39;;;;;;;20.70;15.75;;;5.70;99.90;;;;;;5070793;28;20203;-62
2020/12/06 02:34:09;;;;;;;21.45;16.73;;;5.70;99.90;;;;;;5061337;28;20530;-62
2020/12/06 02:36:36;;;;;;;18.10;15.35;;;5.60;99.90;;;;;;5070115;28;20185;-62
2020/12/06 02:39:03;;;;;;;21.23;16.92;;;5.80;99.90;;;;;;5069833;28;20179;-62
2020/12/06 02:41:41;;;;;;;20.98;16.02;;;5.80;99.90;;;;;;5070695;28;20190;-62
2020/12/06 02:44:09;;;;;;;22.15;16.65;;;5.80;99.90;;;;;;5064608;28;20191;-62
2020/12/06 02:46:35;;;;;;;23.10;17.73;;;5.90;99.90;;;;;;5069995;28;20753;-62
2020/12/06 02:49:01;;;;;;;24.60;17.40;;;6.00;99.90;;;;;;5069521;28;20209;-62
2020/12/06 02:51:27;;;;;;;22.60;18.17;;;5.90;99.90;;;;;;5083040;28;20672;-62
2020/12/06 02:53:53;;;;;;;24.05;17.83;;;5.20;99.90;;;;;;5070111;28;20280;-62
2020/12/06 02:56:19;;;;;;;21.33;17.30;;;5.20;99.90;;;;;;5070110;28;20281;-62
2020/12/06 02:58:44;;;;;;;23.73;17.87;;;5.50;99.90;;;;;;5070597;28;20271;-61
2020/12/06 03:01:10;;;;;;;25.77;18.10;;;5.50;99.90;;;;;;5069742;28;20449;-61
2020/12/06 03:03:37;;;;;;;24.20;19.02;;;5.30;99.90;;;;;;5086928;28;20268;-62
2020/12/06 03:06:03;;;;;;;27.17;18.63;;;5.60;99.90;;;;;;5069925;28;20233;-62
2020/12/06 03:08:29;;;;;;;26.10;17.87;;;5.30;99.90;;;;;;5069991;28;20222;-61
2020/12/06 03:10:55;;;;;;;22.27;17.77;;;5.60;99.90;;;;;;5079431;28;20289;-62
2020/12/06 03:13:20;;;;;;;25.30;18.98;;;5.40;99.90;;;;;;5071941;28;20765;-62
2020/12/06 03:15:46;;;;;;;25.97;17.53;;;5.20;99.90;;;;;;5070042;28;20228;-62
2020/12/06 03:18:12;;;;;;;24.93;18.50;;;5.40;99.90;;;;;;5071926;28;20204;-62
2020/12/06 03:20:37;;;;;;;24.77;18.17;;;5.10;99.90;;;;;;5078418;28;20194;-61
2020/12/06 03:23:03;;;;;;;24.00;17.37;;;5.20;99.90;;;;;;5070304;28;20186;-61
2020/12/06 03:25:28;;;;;;;23.30;17.50;;;5.30;99.90;;;;;;5069472;28;20226;-62
2020/12/06 03:27:54;;;;;;;26.50;19.10;;;5.20;99.90;;;;;;5069212;28;20209;-62
2020/12/06 03:30:20;;;;;;;24.13;18.13;;;4.90;99.90;;;;;;5067158;28;20617;-62
2020/12/06 03:32:45;;;;;;;24.10;18.33;;;5.10;99.90;;;;;;5069633;28;20644;-62
2020/12/06 03:35:11;;;;;;;25.30;17.80;;;5.00;99.90;;;;;;5069494;28;20256;-62
2020/12/06 03:37:36;;;;;;;24.10;18.00;;;5.10;99.90;;;;;;5071135;28;20181;-62
2020/12/06 03:40:03;;;;;;;25.13;17.80;;;5.10;99.90;;;;;;5069811;28;20227;-62
2020/12/06 03:42:29;;;;;;;25.88;18.25;;;5.20;99.90;;;;;;5069560;28;20177;-62
2020/12/06 03:44:54;;;;;;;25.97;18.23;;;5.30;99.90;;;;;;5069264;28;20549;-62
2020/12/06 03:47:20;;;;;;;24.87;17.13;;;5.30;99.90;;;;;;5074643;28;20779;-62
2020/12/06 03:49:46;;;;;;;27.70;18.90;;;5.20;99.90;;;;;;5075763;28;20655;-62
2020/12/06 03:52:11;;;;;;;25.73;19.50;;;4.80;99.90;;;;;;5069215;28;20276;-62
2020/12/06 03:54:40;;;;;;;29.13;19.10;;;4.90;99.90;;;;;;5068738;28;20209;-62
2020/12/06 03:57:06;;;;;;;28.98;19.42;;;4.90;99.90;;;;;;5065732;28;20228;-62
2020/12/06 03:59:31;;;;;;;29.17;19.73;;;4.90;99.90;;;;;;5069235;28;20576;-62
2020/12/06 04:01:57;;;;;;;29.17;20.40;;;5.00;99.90;;;;;;5075896;28;20563;-62
2020/12/06 04:04:22;;;;;;;31.60;19.77;;;5.10;99.90;;;;;;5068506;28;20205;-62
2020/12/06 04:06:48;;;;;;;29.53;18.03;;;5.10;99.90;;;;;;5068412;28;20188;-62
2020/12/06 04:09:13;;;;;;;33.13;18.57;;;4.90;99.90;;;;;;5068508;28;20201;-62
2020/12/06 04:11:39;;;;;;;28.73;18.47;;;5.00;99.90;;;;;;5068886;28;20234;-62
2020/12/06 04:14:05;;;;;;;33.53;20.37;;;5.00;99.90;;;;;;5069004;28;20187;-61
2020/12/06 04:16:30;;;;;;;32.20;19.90;;;4.90;99.90;;;;;;5068454;28;20303;-62
2020/12/06 04:18:56;;;;;;;32.90;20.20;;;4.80;99.90;;;;;;5069291;28;20619;-62
2020/12/06 04:21:22;;;;;;;32.03;18.47;;;4.70;99.90;;;;;;5069765;28;20686;-62
2020/12/06 04:23:47;;;;;;;40.03;21.00;;;5.10;99.90;;;;;;5074075;28;22330;-62
2020/12/06 04:26:13;;;;;;;31.77;20.50;;;4.90;99.90;;;;;;5073317;28;20302;-63
2020/12/06 04:28:38;;;;;;;37.60;21.23;;;4.90;99.90;;;;;;5068266;28;20185;-63
2020/12/06 04:31:04;;;;;;;34.33;20.53;;;5.00;99.90;;;;;;5069653;28;20331;-62
2020/12/06 04:33:30;;;;;;;32.60;21.07;;;5.40;99.90;;;;;;5068870;28;20634;-61
2020/12/06 04:35:55;;;;;;;34.23;21.00;;;5.20;99.90;;;;;;5068341;28;20495;-62
2020/12/06 04:38:21;;;;;;;34.60;22.03;;;5.10;99.90;;;;;;5068402;28;20782;-62
2020/12/06 04:40:47;;;;;;;34.83;20.80;;;4.80;99.90;;;;;;5063956;28;20283;-62
2020/12/06 04:43:18;;;;;;;35.93;21.57;;;4.60;99.90;;;;;;5063870;28;20189;-62
2020/12/06 04:45:45;;;;;;;37.08;20.65;;;4.90;99.90;;;;;;5067814;28;20210;-62
2020/12/06 04:48:20;;;;;;;35.47;20.90;;;4.70;99.90;;;;;;5067939;28;20272;-62
2020/12/06 04:50:53;;;;;;;34.63;20.48;;;4.90;99.90;;;;;;5068195;28;20231;-61
2020/12/06 04:53:22;;;;;;;33.40;20.63;;;5.10;99.90;;;;;;5072474;28;20215;-62
2020/12/06 04:55:52;;;;;;;33.15;19.52;;;4.90;99.90;;;;;;5067773;28;20214;-61
2020/12/06 04:58:25;;;;;;;35.08;20.95;;;5.00;99.90;;;;;;5067866;28;20728;-62
2020/12/06 05:00:51;;;;;;;34.78;20.77;;;4.90;99.90;;;;;;5063506;28;20268;-62
2020/12/06 05:03:22;;;;;;;37.10;19.95;;;5.00;99.90;;;;;;5075391;28;20696;-61
2020/12/06 05:05:50;;;;;;;33.92;19.05;;;5.00;99.90;;;;;;5068093;28;20202;-62
2020/12/06 05:08:17;;;;;;;37.92;20.70;;;5.00;99.90;;;;;;5067959;28;20661;-62
2020/12/06 05:10:47;;;;;;;34.05;20.73;;;5.00;99.90;;;;;;5067903;28;20201;-62
2020/12/06 05:13:14;;;;;;;35.53;19.25;;;4.40;99.90;;;;;;5067829;28;20784;-62
2020/12/06 05:15:40;;;;;;;36.42;20.33;;;5.10;99.90;;;;;;5071571;28;20556;-62
2020/12/06 05:18:06;;;;;;;35.40;21.23;;;4.90;99.90;;;;;;5067932;28;20263;-62
2020/12/06 05:20:32;;;;;;;40.73;23.00;;;4.90;99.90;;;;;;5068216;28;20442;-62
2020/12/06 05:22:58;;;;;;;32.92;20.13;;;4.90;99.90;;;;;;5067263;28;20190;-62
2020/12/06 05:25:24;;;;;;;36.10;21.23;;;4.90;99.90;;;;;;5066994;28;20218;-62
2020/12/06 05:27:53;;;;;;;34.80;21.73;;;4.70;99.90;;;;;;5067552;28;20989;-62
2020/12/06 05:30:19;;;;;;;35.03;20.52;;;4.60;99.90;;;;;;5082131;28;21022;-62
2020/12/06 05:32:45;;;;;;;38.05;22.27;;;4.50;99.90;;;;;;5073418;28;20593;-61
2020/12/06 05:35:13;;;;;;;43.13;22.50;;;4.80;99.90;;;;;;5070864;28;20214;-61
2020/12/06 05:37:40;;;;;;;35.10;21.40;;;5.20;99.90;;;;;;5065475;28;20223;-62
2020/12/06 05:40:07;;;;;;;36.15;21.25;;;4.60;99.90;;;;;;5067286;28;20177;-62
2020/12/06 05:42:34;;;;;;;36.70;21.15;;;4.60;99.90;;;;;;5064470;28;20182;-61
2020/12/06 05:45:00;;;;;;;32.72;20.77;;;4.60;99.90;;;;;;5066874;28;20210;-61
2020/12/06 05:47:27;;;;;;;35.28;21.38;;;4.60;99.90;;;;;;5067444;28;20206;-61
2020/12/06 05:49:55;;;;;;;35.88;21.00;;;5.00;99.90;;;;;;5067096;28;20181;-62
2020/12/06 05:52:20;;;;;;;33.05;18.38;;;4.90;99.90;;;;;;5067142;28;20618;-61
2020/12/06 05:54:47;;;;;;;33.37;18.50;;;5.20;99.90;;;;;;5066933;28;20237;-62
2020/12/06 05:57:13;;;;;;;33.08;20.30;;;4.80;99.90;;;;;;5068767;28;20275;-62
2020/12/06 05:59:40;;;;;;;30.55;19.80;;;4.90;99.90;;;;;;5083945;28;20288;-62
2020/12/06 06:02:07;;;;;;;30.65;18.92;;;4.30;99.90;;;;;;5067011;28;20202;-62
2020/12/06 06:04:38;;;;;;;34.55;19.80;;;4.50;99.90;;;;;;5066774;28;20209;-62
2020/12/06 06:07:06;;;;;;;32.53;20.85;;;4.70;99.90;;;;;;5065981;28;20220;-61
2020/12/06 06:09:40;;;;;;;30.77;17.92;;;4.90;99.90;;;;;;5073858;28;20182;-62
2020/12/06 06:12:24;;;;;;;28.95;17.77;;;5.10;99.90;;;;;;5066442;28;20642;-62
2020/12/06 06:14:56;;;;;;;28.83;18.42;;;4.60;99.90;;;;;;5067253;28;20201;-62
2020/12/06 06:17:23;;;;;;;31.75;19.05;;;4.90;99.90;;;;;;5066641;28;20283;-62
2020/12/06 06:19:49;;;;;;;28.13;17.70;;;4.90;99.90;;;;;;5064729;28;20189;-62
2020/12/06 06:22:17;;;;;;;28.92;18.70;;;5.00;99.90;;;;;;5066746;28;20212;-61
2020/12/06 06:24:45;;;;;;;36.65;21.20;;;4.70;99.90;;;;;;5066691;28;20214;-62
2020/12/06 06:27:11;;;;;;;33.30;20.67;;;4.80;99.90;;;;;;5064065;28;20179;-62
2020/12/06 06:29:37;;;;;;;35.35;21.55;;;4.90;99.90;;;;;;5062232;28;20561;-62
2020/12/06 06:32:03;;;;;;;31.57;19.87;;;4.60;99.90;;;;;;5062425;28;20201;-61
2020/12/06 06:34:31;;;;;;;32.55;19.52;;;4.60;99.90;;;;;;5066619;28;20750;-62
2020/12/06 06:36:57;;;;;;;34.83;20.55;;;4.60;99.90;;;;;;5066976;28;20214;-62
2020/12/06 06:39:24;;;;;;;36.25;21.63;;;4.80;99.90;;;;;;5063398;28;20194;-61
2020/12/06 06:41:58;;;;;;;31.65;21.02;;;4.80;99.90;;;;;;5068079;28;20207;-62
2020/12/06 06:44:26;;;;;;;31.85;19.25;;;4.60;99.90;;;;;;5066433;28;20210;-63
2020/12/06 06:46:51;;;;;;;34.60;19.98;;;4.80;99.90;;;;;;5067349;28;20558;-61
2020/12/06 06:49:19;;;;;;;30.23;18.83;;;5.00;99.90;;;;;;5069631;28;20181;-62
2020/12/06 06:51:52;;;;;;;31.23;20.27;;;4.90;99.90;;;;;;5070985;28;20204;-62
2020/12/06 06:54:27;;;;;;;30.00;18.77;;;5.00;99.90;;;;;;5069862;28;20226;-61
2020/12/06 06:56:54;;;;;;;35.60;20.13;;;5.00;99.90;;;;;;5061858;28;20326;-62
2020/12/06 06:59:40;;;;;;;34.63;21.27;;;4.80;99.90;;;;;;5068481;28;20173;-62
2020/12/06 07:02:06;;;;;;;33.60;18.77;;;5.00;99.90;;;;;;5069127;28;20212;-62
2020/12/06 07:04:32;;;;;;;30.85;18.48;;;4.90;99.90;;;;;;5067016;28;20686;-62
2020/12/06 07:06:58;;;;;;;28.98;17.35;;;5.10;99.90;;;;;;5085164;28;20792;-62
2020/12/06 07:09:27;;;;;;;32.90;17.70;;;5.00;99.90;;;;;;5068177;28;20273;-62
2020/12/06 07:11:57;;;;;;;34.20;18.88;;;5.10;99.90;;;;;;5084806;28;20218;-62
2020/12/06 07:14:25;;;;;;;32.55;18.25;;;4.90;99.90;;;;;;5067546;28;20292;-62
2020/12/06 07:16:52;;;;;;;30.75;18.10;;;5.20;99.90;;;;;;5069226;28;20192;-62
2020/12/06 07:19:17;;;;;;;38.60;18.85;;;4.90;99.90;;;;;;5068507;28;20217;-61
2020/12/06 07:21:43;;;;;;;29.47;18.13;;;5.00;99.90;;;;;;5065178;28;20609;-61
2020/12/06 07:24:09;;;;;;;33.37;19.00;;;4.90;99.90;;;;;;5068223;28;20617;-60
2020/12/06 07:26:35;;;;;;;33.45;19.02;;;5.00;99.90;;;;;;5069592;28;20243;-61
2020/12/06 07:29:01;;;;;;;34.30;18.20;;;4.90;99.90;;;;;;5060297;28;20178;-60
2020/12/06 07:31:27;;;;;;;30.30;16.60;;;5.10;99.90;;;;;;5068881;28;20312;-59
2020/12/06 07:33:53;;;;;;;30.05;17.55;;;4.80;99.90;;;;;;5068182;28;20536;-61
2020/12/06 07:36:19;;;;;;;35.03;18.87;;;4.70;99.90;;;;;;5067782;28;20223;-60
2020/12/06 07:38:45;;;;;;;27.67;15.82;;;4.60;99.90;;;;;;5065109;28;20186;-62
2020/12/06 07:41:11;;;;;;;31.93;17.40;;;4.20;99.90;;;;;;5068523;28;20189;-62
2020/12/06 07:43:38;;;;;;;36.75;19.65;;;5.00;99.90;;;;;;5067201;28;20495;-63
2020/12/06 07:46:16;;;;;;;33.75;18.85;;;4.70;99.90;;;;;;5068649;28;20197;-62
2020/12/06 07:48:42;;;;;;;33.92;18.50;;;5.00;99.90;;;;;;5069301;28;20302;-62
2020/12/06 07:51:08;;;;;;;35.07;19.80;;;5.00;99.90;;;;;;5069360;28;20203;-62
2020/12/06 07:53:48;;;;;;;35.30;18.50;;;4.80;99.90;;;;;;5066465;28;20436;-62
2020/12/06 07:56:17;;;;;;;42.15;20.73;;;4.80;99.90;;;;;;5065629;28;20205;-62
2020/12/06 07:59:08;;;;;;;31.20;17.40;;;4.90;99.90;;;;;;5084469;28;20194;-62
2020/12/06 08:01:34;;;;;;;34.33;17.35;;;5.00;99.90;;;;;;5086765;28;20197;-62
2020/12/06 08:04:02;;;;;;;31.10;17.08;;;4.90;99.90;;;;;;5068176;28;20835;-62
2020/12/06 08:06:28;;;;;;;30.52;17.20;;;4.80;99.90;;;;;;5067124;28;20184;-62
2020/12/06 08:09:00;;;;;;;32.03;16.25;;;4.60;99.90;;;;;;5068547;28;20242;-62
2020/12/06 08:11:38;;;;;;;30.08;16.63;;;5.10;99.90;;;;;;5068232;28;20304;-62
2020/12/06 08:14:04;;;;;;;34.22;19.15;;;5.10;99.90;;;;;;5070195;28;20177;-62
2020/12/06 08:16:30;;;;;;;33.58;17.15;;;5.00;99.90;;;;;;5068913;28;20182;-62
2020/12/06 08:19:01;;;;;;;34.37;17.23;;;5.00;99.90;;;;;;5064786;28;20660;-62
2020/12/06 08:21:42;;;;;;;31.63;15.35;;;4.70;99.90;;;;;;5068722;28;20439;-62
2020/12/06 08:24:19;;;;;;;29.75;15.38;;;4.70;99.90;;;;;;5056656;28;20185;-62
2020/12/06 08:26:45;;;;;;;35.92;15.80;;;4.60;99.90;;;;;;5066622;28;20189;-62
2020/12/06 08:29:12;;;;;;;32.47;16.15;;;4.70;99.90;;;;;;5066964;28;20179;-62
2020/12/06 08:31:38;;;;;;;32.45;16.15;;;4.60;99.90;;;;;;5067690;28;20212;-62
2020/12/06 08:34:14;;;;;;;34.07;16.30;;;4.70;99.90;;;;;;5067939;28;20181;-62
2020/12/06 08:36:40;;;;;;;28.08;15.38;;;4.70;99.90;;;;;;5067524;28;20208;-62
2020/12/06 08:39:22;;;;;;;32.25;17.42;;;4.40;99.90;;;;;;5068338;28;20183;-62
2020/12/06 08:41:49;;;;;;;30.60;15.57;;;4.80;99.90;;;;;;5067636;28;20221;-62
2020/12/06 08:44:15;;;;;;;24.02;14.32;;;5.00;99.90;;;;;;5067702;28;20218;-62
2020/12/06 08:46:52;;;;;;;25.90;15.32;;;5.00;99.90;;;;;;5068574;28;20210;-62
2020/12/06 08:49:21;;;;;;;30.50;15.57;;;4.80;99.90;;;;;;5061047;28;20194;-62
2020/12/06 08:51:52;;;;;;;28.77;15.75;;;5.10;99.90;;;;;;5085248;28;20679;-62
2020/12/06 08:54:33;;;;;;;24.70;13.63;;;5.00;99.90;;;;;;5065516;28;20198;-62
2020/12/06 08:57:09;;;;;;;23.40;13.70;;;5.30;99.90;;;;;;5067859;28;20185;-62
2020/12/06 08:59:39;;;;;;;29.40;15.27;;;5.10;99.90;;;;;;5066185;28;20178;-62
2020/12/06 09:02:05;;;;;;;28.15;14.50;;;5.20;99.90;;;;;;5066866;28;20181;-62
2020/12/06 09:04:36;;;;;;;24.65;14.07;;;5.50;99.90;;;;;;5066724;28;20225;-62
2020/12/06 09:07:05;;;;;;;19.85;12.85;;;5.20;99.90;;;;;;5068757;28;20272;-61
2020/12/06 09:09:31;;;;;;;23.73;14.18;;;5.30;99.90;;;;;;5065540;28;20217;-60
2020/12/06 09:11:57;;;;;;;26.48;13.90;;;5.40;99.90;;;;;;5065046;28;20288;-61
2020/12/06 09:14:23;;;;;;;18.95;11.35;;;5.40;99.90;;;;;;5066459;28;20229;-60
2020/12/06 09:16:50;;;;;;;19.20;11.50;;;5.20;99.90;;;;;;5065476;28;20178;-61
2020/12/06 09:19:15;;;;;;;15.82;10.02;;;5.40;99.90;;;;;;5075615;28;20270;-61
2020/12/06 09:21:41;;;;;;;17.13;10.30;;;5.60;99.90;;;;;;5064311;28;20269;-60
2020/12/06 09:24:07;;;;;;;18.43;11.43;;;5.60;99.90;;;;;;5059979;28;20288;-60
2020/12/06 09:26:32;;;;;;;19.93;12.43;;;5.50;99.90;;;;;;5065207;28;20216;-60
2020/12/06 09:28:59;;;;;;;19.97;11.47;;;5.60;99.90;;;;;;5066198;28;20448;-60
2020/12/06 09:31:25;;;;;;;16.90;11.27;;;5.70;99.90;;;;;;5065411;28;20271;-59
2020/12/06 09:33:51;;;;;;;17.60;10.45;;;5.90;99.90;;;;;;5063910;28;20193;-59
2020/12/06 09:36:17;;;;;;;17.05;9.48;;;5.90;99.90;;;;;;5065242;28;20972;-60
2020/12/06 09:38:43;;;;;;;16.30;9.67;;;5.60;99.90;;;;;;5066080;28;20180;-59
2020/12/06 09:41:12;;;;;;;13.70;9.25;;;5.70;99.90;;;;;;5066375;28;20433;-59
2020/12/06 09:43:43;;;;;;;13.60;8.48;;;5.70;99.90;;;;;;5057144;28;20196;-59
2020/12/06 09:46:10;;;;;;;15.70;9.57;;;5.70;99.90;;;;;;5068585;28;20259;-59
2020/12/06 09:48:37;;;;;;;12.02;7.93;;;5.90;99.90;;;;;;5067023;28;20200;-58
2020/12/06 09:51:04;;;;;;;11.65;8.18;;;5.80;99.90;;;;;;5065047;28;20554;-59
2020/12/06 09:53:30;;;;;;;15.68;9.85;;;5.70;99.90;;;;;;5064316;28;20188;-60
2020/12/06 09:55:55;;;;;;;13.93;8.53;;;5.90;99.90;;;;;;5069541;28;20203;-59
2020/12/06 09:58:21;;;;;;;12.50;9.10;;;5.90;99.90;;;;;;5066706;28;20433;-59
2020/12/06 10:00:47;;;;;;;14.00;10.27;;;5.90;99.90;;;;;;5081221;28;20188;-59
2020/12/06 10:03:13;;;;;;;13.87;10.10;;;6.10;99.90;;;;;;5066807;28;20444;-58
2020/12/06 10:05:38;;;;;;;12.07;9.20;;;5.50;99.90;;;;;;5067512;28;20211;-59
2020/12/06 10:08:04;;;;;;;13.03;9.10;;;5.90;99.90;;;;;;5064782;28;20175;-57
2020/12/06 10:10:30;;;;;;;14.90;9.60;;;6.30;99.90;;;;;;5066812;28;20296;-59
2020/12/06 10:12:55;;;;;;;12.00;8.07;;;6.10;99.90;;;;;;5066993;28;20444;-59
2020/12/06 10:15:21;;;;;;;14.83;8.60;;;5.90;99.90;;;;;;5066192;28;20204;-58
2020/12/06 10:17:47;;;;;;;12.80;8.47;;;5.90;99.90;;;;;;5069469;28;20670;-59
2020/12/06 10:20:12;;;;;;;13.03;9.10;;;6.40;99.90;;;;;;5062874;28;20577;-58
2020/12/06 10:22:38;;;;;;;11.40;7.80;;;6.10;99.90;;;;;;5083326;28;20198;-58
2020/12/06 10:25:05;;;;;;;10.73;8.20;;;6.00;99.90;;;;;;5069316;28;20244;-60
2020/12/06 10:27:37;;;;;;;11.48;8.07;;;5.50;99.90;;;;;;5069936;28;20186;-58
2020/12/06 10:30:04;;;;;;;11.90;8.55;;;6.00;99.90;;;;;;5070032;28;20314;-59
2020/12/06 10:32:30;;;;;;;11.55;7.88;;;6.30;99.90;;;;;;5070410;28;20282;-59
2020/12/06 10:34:55;;;;;;;10.20;8.10;;;6.50;99.90;;;;;;5069849;28;20291;-59
2020/12/06 10:37:21;;;;;;;9.80;7.83;;;6.20;99.90;;;;;;5068037;28;20254;-59
2020/12/06 10:39:47;;;;;;;11.50;7.10;;;6.50;99.90;;;;;;5070522;28;20175;-58
2020/12/06 10:42:12;;;;;;;9.77;7.63;;;6.50;99.90;;;;;;5069753;28;20729;-58
2020/12/06 10:44:38;;;;;;;9.97;7.60;;;6.30;99.90;;;;;;5069646;28;20246;-58
2020/12/06 10:47:03;;;;;;;9.70;8.00;;;6.80;99.90;;;;;;5069782;28;20207;-58
2020/12/06 10:49:30;;;;;;;11.70;7.80;;;6.50;99.90;;;;;;5070093;28;20188;-59
2020/12/06 10:51:56;;;;;;;8.48;7.35;;;6.50;99.90;;;;;;5068727;28;20249;-58
2020/12/06 10:54:22;;;;;;;9.73;7.80;;;6.30;99.90;;;;;;5070405;28;20709;-58
2020/12/06 10:56:47;;;;;;;8.43;6.90;;;6.60;99.90;;;;;;5069737;28;20180;-58
2020/12/06 10:59:13;;;;;;;8.00;6.87;;;6.60;99.90;;;;;;5069833;28;20179;-61
2020/12/06 11:01:41;;;;;;;13.03;7.43;;;6.60;99.90;;;;;;5071114;28;20203;-59
2020/12/06 11:04:07;;;;;;;10.85;7.88;;;6.20;99.90;;;;;;5070128;28;20189;-59
2020/12/06 11:06:33;;;;;;;13.27;7.80;;;5.90;99.90;;;;;;5069857;28;20209;-59
2020/12/06 11:08:59;;;;;;;14.00;8.75;;;6.10;99.90;;;;;;5069265;28;20183;-58
2020/12/06 11:11:25;;;;;;;10.90;8.60;;;5.90;99.90;;;;;;5069458;28;20199;-57
2020/12/06 11:13:51;;;;;;;9.30;7.40;;;6.10;99.90;;;;;;5070011;28;20445;-57
2020/12/06 11:16:22;;;;;;;10.32;7.47;;;5.90;99.90;;;;;;5069370;28;20210;-60
2020/12/06 11:18:49;;;;;;;10.13;7.45;;;5.90;99.90;;;;;;5067501;28;20178;-57
2020/12/06 11:21:16;;;;;;;8.40;7.03;;;6.30;99.90;;;;;;5069847;28;20192;-57
2020/12/06 11:23:42;;;;;;;8.32;6.53;;;6.10;99.90;;;;;;5068232;28;20235;-56
2020/12/06 11:26:08;;;;;;;12.02;7.57;;;6.10;99.90;;;;;;5068724;28;20883;-59
2020/12/06 11:28:34;;;;;;;8.57;6.30;;;6.30;99.90;;;;;;5065787;28;20176;-57
2020/12/06 11:31:00;;;;;;;7.95;7.03;;;6.00;99.90;;;;;;5069344;28;20212;-58
2020/12/06 11:33:25;;;;;;;8.90;6.40;;;6.40;99.90;;;;;;5066876;28;20176;-59
2020/12/06 11:35:51;;;;;;;8.17;7.20;;;6.00;99.90;;;;;;5065799;28;20692;-56
2020/12/06 11:38:17;;;;;;;12.57;9.07;;;6.60;99.90;;;;;;5065296;28;20947;-59
2020/12/06 11:40:43;;;;;;;9.97;7.87;;;6.50;99.90;;;;;;5067396;28;20250;-60
2020/12/06 11:43:09;;;;;;;10.93;7.90;;;6.60;99.90;;;;;;5081787;28;20427;-60
2020/12/06 11:45:37;;;;;;;9.73;8.00;;;6.60;99.90;;;;;;5084763;28;20199;-58
2020/12/06 11:48:03;;;;;;;9.95;8.10;;;6.70;99.90;;;;;;5068169;28;20185;-59
2020/12/06 11:50:29;;;;;;;8.32;7.05;;;6.80;99.90;;;;;;5063540;28;20672;-60
2020/12/06 11:52:55;;;;;;;6.60;5.95;;;6.50;99.90;;;;;;5066155;28;20181;-59
2020/12/06 11:55:20;;;;;;;6.53;5.93;;;6.30;99.90;;;;;;5067007;28;20199;-56
2020/12/06 11:57:46;;;;;;;6.63;5.90;;;6.50;99.90;;;;;;5065267;28;20268;-59
2020/12/06 12:00:12;;;;;;;8.00;7.13;;;6.60;99.90;;;;;;5067269;28;20725;-58
2020/12/06 12:02:38;;;;;;;6.53;5.80;;;6.70;99.90;;;;;;5066915;28;20502;-58
2020/12/06 12:05:03;;;;;;;8.20;6.47;;;6.70;99.90;;;;;;5066061;28;20274;-61
2020/12/06 12:07:29;;;;;;;7.13;6.40;;;6.70;99.90;;;;;;5068025;28;20265;-58
2020/12/06 12:09:55;;;;;;;6.90;5.78;;;6.80;99.90;;;;;;5067077;28;20446;-57
2020/12/06 12:12:21;;;;;;;7.70;5.27;;;6.40;99.90;;;;;;5070347;28;20641;-56
2020/12/06 12:14:46;;;;;;;6.37;5.77;;;6.50;99.90;;;;;;5068062;28;20325;-56
2020/12/06 12:17:15;;;;;;;6.47;5.80;;;6.90;99.90;;;;;;5067137;28;20712;-59
2020/12/06 12:19:41;;;;;;;6.43;5.50;;;6.40;99.90;;;;;;5075993;28;20178;-60
2020/12/06 12:22:06;;;;;;;5.87;5.37;;;6.80;99.90;;;;;;5067933;28;20199;-59
2020/12/06 12:24:32;;;;;;;5.90;5.30;;;6.70;99.90;;;;;;5066616;28;20253;-59
2020/12/06 12:26:58;;;;;;;6.80;6.20;;;6.90;99.90;;;;;;5079956;28;20273;-59
2020/12/06 12:29:24;;;;;;;5.60;5.10;;;6.70;99.90;;;;;;5066282;28;20641;-58
2020/12/06 12:31:50;;;;;;;5.90;5.30;;;6.50;99.90;;;;;;5066751;28;20207;-58
2020/12/06 12:34:16;;;;;;;6.43;5.80;;;6.70;99.90;;;;;;5084166;28;20185;-59
2020/12/06 12:36:43;;;;;;;6.10;5.25;;;6.80;99.90;;;;;;5067409;28;20264;-59
2020/12/06 12:39:08;;;;;;;5.45;4.95;;;6.70;99.90;;;;;;5063227;28;20346;-60